sensor_id;sensor_type;location;lat;lon;timestamp;pressure;altitude;pressure_sealevel;temperature;humidity
28626;BME280;18905;42.668;23.364;2023-01-31T00:01:05;94608.41;;;0.68;100.00
28626;BME280;18905;42.668;23.364;2023-01-31T00:03:31;94648.53;;;0.51;100.00
28626;BME280;18905;42.668;23.364;2023-01-31T00:05:56;94648.78;;;0.55;100.00
28626;BME280;18905;42.668;23.364;2023-01-31T00:08:22;94648.22;;;0.52;100.00
28626;BME280;18905;42.668;23.364;2023-01-31T00:10:47;94636.03;;;0.47;100.00
28626;BME280;18905;42.668;23.364;2023-01-31T00:13:13;94653.81;;;0.71;100.00
28626;BME280;18905;42.668;23.364;2023-01-31T00:15:38;94648.78;;;0.55;100.00
28626;BME280;18905;42.668;23.364;2023-01-31T00:18:03;94657.53;;;0.20;100.00
28626;BME280;18905;42.668;23.364;2023-01-31T00:20:29;94637.03;;;-0.10;100.00
28626;BME280;18905;42.668;23.364;2023-01-31T00:22:54;94631.16;;;-0.17;100.00
28626;BME280;18905;42.668;23.364;2023-01-31T00:25:19;94616.63;;;-0.09;100.00
28626;BME280;18905;42.668;23.364;2023-01-31T00:27:45;94597.22;;;-0.15;100.00
28626;BME280;18905;42.668;23.364;2023-01-31T00:30:11;94618.22;;;0.07;100.00
28626;BME280;18905;42.668;23.364;2023-01-31T00:32:36;94623.00;;;0.15;100.00
28626;BME280;18905;42.668;23.364;2023-01-31T00:35:02;94531.56;;;-0.84;100.00
28626;BME280;18905;42.668;23.364;2023-01-31T00:37:27;94598.78;;;-0.39;100.00
28626;BME280;18905;42.668;23.364;2023-01-31T00:39:53;94641.53;;;-0.05;100.00
28626;BME280;18905;42.668;23.364;2023-01-31T00:42:18;94641.03;;;-0.07;100.00
28626;BME280;18905;42.668;23.364;2023-01-31T00:44:43;94604.59;;;-0.42;100.00
28626;BME280;18905;42.668;23.364;2023-01-31T00:47:09;94634.41;;;0.00;100.00
28626;BME280;18905;42.668;23.364;2023-01-31T00:49:34;94625.91;;;0.08;100.00
28626;BME280;18905;42.668;23.364;2023-01-31T00:52:00;94640.28;;;0.32;100.00
28626;BME280;18905;42.668;23.364;2023-01-31T00:54:25;94602.28;;;0.22;100.00
28626;BME280;18905;42.668;23.364;2023-01-31T00:56:50;94634.44;;;0.46;100.00
28626;BME280;18905;42.668;23.364;2023-01-31T00:59:16;94608.66;;;0.61;100.00
28626;BME280;18905;42.668;23.364;2023-01-31T01:01:41;94589.25;;;0.71;100.00
28626;BME280;18905;42.668;23.364;2023-01-31T01:04:07;94598.53;;;0.88;100.00
28626;BME280;18905;42.668;23.364;2023-01-31T01:06:32;94627.94;;;1.17;100.00
28626;BME280;18905;42.668;23.364;2023-01-31T01:08:58;94634.59;;;1.24;100.00
28626;BME280;18905;42.668;23.364;2023-01-31T01:11:29;94657.47;;;1.20;100.00
28626;BME280;18905;42.668;23.364;2023-01-31T01:13:56;94648.44;;;1.16;100.00
28626;BME280;18905;42.668;23.364;2023-01-31T01:16:33;94629.06;;;0.96;100.00
28626;BME280;18905;42.668;23.364;2023-01-31T01:19:04;94646.09;;;1.00;100.00
28626;BME280;18905;42.668;23.364;2023-01-31T01:21:30;94575.75;;;0.37;100.00
28626;BME280;18905;42.668;23.364;2023-01-31T01:23:58;94620.84;;;0.97;100.00
28626;BME280;18905;42.668;23.364;2023-01-31T01:26:29;94623.22;;;0.89;100.00
28626;BME280;18905;42.668;23.364;2023-01-31T01:28:56;94615.03;;;0.70;100.00
28626;BME280;18905;42.668;23.364;2023-01-31T01:31:23;94629.91;;;0.61;100.00
28626;BME280;18905;42.668;23.364;2023-01-31T01:34:05;94615.56;;;0.57;100.00
28626;BME280;18905;42.668;23.364;2023-01-31T01:36:35;94615.00;;;0.90;100.00
28626;BME280;18905;42.668;23.364;2023-01-31T01:39:01;94608.34;;;0.88;100.00
28626;BME280;18905;42.668;23.364;2023-01-31T01:41:27;94594.56;;;0.71;100.00
28626;BME280;18905;42.668;23.364;2023-01-31T01:43:55;94595.91;;;0.78;100.00
28626;BME280;18905;42.668;23.364;2023-01-31T01:46:27;94603.25;;;1.11;100.00
28626;BME280;18905;42.668;23.364;2023-01-31T01:49:02;94606.44;;;1.13;100.00
28626;BME280;18905;42.668;23.364;2023-01-31T01:51:29;94590.28;;;0.95;100.00
28626;BME280;18905;42.668;23.364;2023-01-31T01:53:59;94598.50;;;0.98;100.00
28626;BME280;18905;42.668;23.364;2023-01-31T01:56:29;94595.31;;;1.01;100.00
28626;BME280;18905;42.668;23.364;2023-01-31T01:59:04;94612.53;;;1.19;100.00
28626;BME280;18905;42.668;23.364;2023-01-31T02:01:34;94580.72;;;0.84;100.00
28626;BME280;18905;42.668;23.364;2023-01-31T02:04:02;94606.44;;;1.13;98.44
28626;BME280;18905;42.668;23.364;2023-01-31T02:06:28;94603.50;;;1.15;99.36
28626;BME280;18905;42.668;23.364;2023-01-31T02:08:54;94614.38;;;1.23;98.16
28626;BME280;18905;42.668;23.364;2023-01-31T02:11:24;94611.50;;;1.05;98.26
28626;BME280;18905;42.668;23.364;2023-01-31T02:13:54;94623.72;;;1.06;98.45
28626;BME280;18905;42.668;23.364;2023-01-31T02:16:21;94615.97;;;1.24;98.56
28626;BME280;18905;42.668;23.364;2023-01-31T02:18:47;94604.59;;;1.04;96.15
28626;BME280;18905;42.668;23.364;2023-01-31T02:27:42;94605.38;;;1.19;88.75
28626;BME280;18905;42.668;23.364;2023-01-31T02:33:23;94610.97;;;1.13;88.38
28626;BME280;18905;42.668;23.364;2023-01-31T02:36:06;94618.91;;;1.23;86.54
28626;BME280;18905;42.668;23.364;2023-01-31T02:41:40;94615.16;;;1.29;86.50
28626;BME280;18905;42.668;23.364;2023-01-31T02:49:40;94624.50;;;1.16;87.05
28626;BME280;18905;42.668;23.364;2023-01-31T02:52:19;94636.47;;;1.14;88.28
28626;BME280;18905;42.668;23.364;2023-01-31T02:55:13;94637.78;;;1.21;87.78
28626;BME280;18905;42.668;23.364;2023-01-31T02:58:00;94643.91;;;1.12;87.87
28626;BME280;18905;42.668;23.364;2023-01-31T03:00:28;94655.06;;;1.19;88.72
28626;BME280;18905;42.668;23.364;2023-01-31T03:02:55;94644.19;;;1.15;89.49
28626;BME280;18905;42.668;23.364;2023-01-31T03:05:21;94665.63;;;1.44;89.96
28626;BME280;18905;42.668;23.364;2023-01-31T03:07:53;94665.38;;;1.40;89.95
28626;BME280;18905;42.668;23.364;2023-01-31T03:13:10;94680.31;;;1.26;93.72
28626;BME280;18905;42.668;23.364;2023-01-31T03:18:40;94675.81;;;1.22;96.04
28626;BME280;18905;42.668;23.364;2023-01-31T03:21:13;94687.00;;;1.09;97.99
28626;BME280;18905;42.668;23.364;2023-01-31T03:23:43;94672.91;;;1.03;98.99
28626;BME280;18905;42.668;23.364;2023-01-31T03:26:10;94665.75;;;0.99;99.48
28626;BME280;18905;42.668;23.364;2023-01-31T03:28:38;94666.81;;;0.93;100.00
28626;BME280;18905;42.668;23.364;2023-01-31T03:32:08;94697.66;;;0.99;100.00
28626;BME280;18905;42.668;23.364;2023-01-31T03:34:09;94685.69;;;0.81;100.00
28626;BME280;18905;42.668;23.364;2023-01-31T03:37:25;94704.78;;;1.23;100.00
28626;BME280;18905;42.668;23.364;2023-01-31T03:42:01;94665.50;;;0.85;100.00
28626;BME280;18905;42.668;23.364;2023-01-31T03:47:29;94692.88;;;0.66;100.00
28626;BME280;18905;42.668;23.364;2023-01-31T03:49:58;94728.22;;;0.71;100.00
28626;BME280;18905;42.668;23.364;2023-01-31T03:52:30;94724.50;;;0.92;100.00
28626;BME280;18905;42.668;23.364;2023-01-31T03:55:06;94712.81;;;0.98;100.00
28626;BME280;18905;42.668;23.364;2023-01-31T03:57:36;94715.47;;;0.93;100.00
28626;BME280;18905;42.668;23.364;2023-01-31T04:00:07;94722.38;;;0.84;100.00
28626;BME280;18905;42.668;23.364;2023-01-31T04:02:35;94654.09;;;0.35;100.00
28626;BME280;18905;42.668;23.364;2023-01-31T04:05:17;94719.19;;;0.87;100.00
28626;BME280;18905;42.668;23.364;2023-01-31T04:07:43;94706.97;;;0.71;100.00
28626;BME280;18905;42.668;23.364;2023-01-31T04:10:12;94679.06;;;0.64;100.00
28626;BME280;18905;42.668;23.364;2023-01-31T04:12:39;94693.38;;;0.52;100.00
28626;BME280;18905;42.668;23.364;2023-01-31T04:15:05;94724.78;;;0.81;100.00
28626;BME280;18905;42.668;23.364;2023-01-31T04:17:33;94685.97;;;0.35;100.00
28626;BME280;18905;42.668;23.364;2023-01-31T04:19:59;94701.91;;;0.70;100.00
28626;BME280;18905;42.668;23.364;2023-01-31T04:22:24;94711.75;;;0.74;100.00
28626;BME280;18905;42.668;23.364;2023-01-31T04:24:50;94703.25;;;0.47;100.00
28626;BME280;18905;42.668;23.364;2023-01-31T04:27:15;94733.28;;;0.68;100.00
28626;BME280;18905;42.668;23.364;2023-01-31T04:29:41;94675.34;;;0.45;100.00
28626;BME280;18905;42.668;23.364;2023-01-31T04:32:06;94707.22;;;0.55;100.00
28626;BME280;18905;42.668;23.364;2023-01-31T04:34:32;94735.94;;;0.58;100.00
28626;BME280;18905;42.668;23.364;2023-01-31T04:36:57;94710.41;;;0.47;100.00
28626;BME280;18905;42.668;23.364;2023-01-31T04:39:22;94719.94;;;0.28;100.00
28626;BME280;18905;42.668;23.364;2023-01-31T04:41:48;94728.47;;;0.35;100.00
28626;BME280;18905;42.668;23.364;2023-01-31T04:44:13;94751.03;;;0.47;100.00
28626;BME280;18905;42.668;23.364;2023-01-31T04:46:40;94742.25;;;0.37;100.00
28626;BME280;18905;42.668;23.364;2023-01-31T04:49:06;94764.31;;;0.32;100.00
28626;BME280;18905;42.668;23.364;2023-01-31T04:51:31;94780.78;;;0.54;100.00
28626;BME280;18905;42.668;23.364;2023-01-31T04:53:57;94764.59;;;0.66;100.00
28626;BME280;18905;42.668;23.364;2023-01-31T04:56:22;94741.44;;;0.41;100.00
28626;BME280;18905;42.668;23.364;2023-01-31T04:58:47;94761.34;;;0.28;100.00
28626;BME280;18905;42.668;23.364;2023-01-31T05:01:13;94765.09;;;0.38;100.00
28626;BME280;18905;42.668;23.364;2023-01-31T05:03:39;94775.22;;;0.51;100.00
28626;BME280;18905;42.668;23.364;2023-01-31T05:06:05;94775.53;;;0.74;100.00
28626;BME280;18905;42.668;23.364;2023-01-31T05:08:30;94720.75;;;0.28;100.00
28626;BME280;18905;42.668;23.364;2023-01-31T05:10:57;94763.56;;;0.67;100.00
28626;BME280;18905;42.668;23.364;2023-01-31T05:13:23;94741.50;;;0.46;100.00
28626;BME280;18905;42.668;23.364;2023-01-31T05:15:49;94756.63;;;0.66;100.00
28626;BME280;18905;42.668;23.364;2023-01-31T05:18:15;94750.00;;;0.63;100.00
28626;BME280;18905;42.668;23.364;2023-01-31T05:20:40;94720.25;;;0.71;100.00
28626;BME280;18905;42.668;23.364;2023-01-31T05:23:07;94723.16;;;0.55;100.00
28626;BME280;18905;42.668;23.364;2023-01-31T05:25:33;94768.91;;;0.77;100.00
28626;BME280;18905;42.668;23.364;2023-01-31T05:27:59;94781.63;;;0.60;100.00
28626;BME280;18905;42.668;23.364;2023-01-31T05:30:25;94779.75;;;0.60;100.00
28626;BME280;18905;42.668;23.364;2023-01-31T05:32:50;94755.84;;;0.55;100.00
28626;BME280;18905;42.668;23.364;2023-01-31T05:35:16;94781.66;;;0.95;100.00
28626;BME280;18905;42.668;23.364;2023-01-31T05:37:42;94784.28;;;0.75;100.00
28626;BME280;18905;42.668;23.364;2023-01-31T05:42:35;94781.38;;;0.71;100.00
28626;BME280;18905;42.668;23.364;2023-01-31T05:45:01;94778.44;;;0.73;100.00
28626;BME280;18905;42.668;23.364;2023-01-31T05:47:26;94779.50;;;0.67;100.00
28626;BME280;18905;42.668;23.364;2023-01-31T05:49:52;94780.03;;;0.79;100.00
28626;BME280;18905;42.668;23.364;2023-01-31T05:52:17;94782.44;;;0.85;100.00
28626;BME280;18905;42.668;23.364;2023-01-31T05:54:42;94773.66;;;0.75;100.00
28626;BME280;18905;42.668;23.364;2023-01-31T05:57:08;94778.47;;;0.93;100.00
28626;BME280;18905;42.668;23.364;2023-01-31T05:59:33;94782.19;;;0.82;100.00
28626;BME280;18905;42.668;23.364;2023-01-31T06:01:58;94787.75;;;0.75;100.00
28626;BME280;18905;42.668;23.364;2023-01-31T06:04:24;94753.97;;;0.61;100.00
28626;BME280;18905;42.668;23.364;2023-01-31T06:06:49;94764.91;;;0.64;100.00
28626;BME280;18905;42.668;23.364;2023-01-31T06:09:15;94767.28;;;0.71;100.00
28626;BME280;18905;42.668;23.364;2023-01-31T06:11:40;94779.25;;;0.83;100.00
28626;BME280;18905;42.668;23.364;2023-01-31T06:14:07;94796.81;;;1.04;100.00
28626;BME280;18905;42.668;23.364;2023-01-31T06:16:33;94802.94;;;1.10;100.00
28626;BME280;18905;42.668;23.364;2023-01-31T06:18:58;94790.16;;;0.87;100.00
28626;BME280;18905;42.668;23.364;2023-01-31T06:21:24;94811.16;;;0.93;100.00
28626;BME280;18905;42.668;23.364;2023-01-31T06:23:49;94799.19;;;0.91;100.00
28626;BME280;18905;42.668;23.364;2023-01-31T06:26:15;94806.91;;;0.97;100.00
28626;BME280;18905;42.668;23.364;2023-01-31T06:28:40;94815.44;;;1.19;100.00
28626;BME280;18905;42.668;23.364;2023-01-31T06:31:07;94812.25;;;1.07;100.00
28626;BME280;18905;42.668;23.364;2023-01-31T06:33:33;94774.47;;;1.05;100.00
28626;BME280;18905;42.668;23.364;2023-01-31T06:35:58;94767.56;;;0.99;100.00
28626;BME280;18905;42.668;23.364;2023-01-31T06:38:25;94803.19;;;1.23;100.00
28626;BME280;18905;42.668;23.364;2023-01-31T06:40:50;94806.91;;;1.17;100.00
28626;BME280;18905;42.668;23.364;2023-01-31T06:43:16;94788.56;;;1.16;100.00
28626;BME280;18905;42.668;23.364;2023-01-31T06:45:42;94773.13;;;1.03;100.00
28626;BME280;18905;42.668;23.364;2023-01-31T06:48:09;94827.66;;;1.40;100.00
28626;BME280;18905;42.668;23.364;2023-01-31T06:50:35;94834.31;;;1.33;100.00
28626;BME280;18905;42.668;23.364;2023-01-31T06:53:00;94738.31;;;0.84;100.00
28626;BME280;18905;42.668;23.364;2023-01-31T06:55:26;94820.47;;;1.16;100.00
28626;BME280;18905;42.668;23.364;2023-01-31T06:57:51;94821.00;;;1.53;100.00
28626;BME280;18905;42.668;23.364;2023-01-31T07:00:17;94840.16;;;1.60;100.00
28626;BME280;18905;42.668;23.364;2023-01-31T07:02:44;94823.16;;;1.36;100.00
28626;BME280;18905;42.668;23.364;2023-01-31T07:05:09;94786.16;;;1.04;100.00
28626;BME280;18905;42.668;23.364;2023-01-31T07:07:35;94824.47;;;1.48;100.00
28626;BME280;18905;42.668;23.364;2023-01-31T07:10:00;94818.31;;;1.53;100.00
28626;BME280;18905;42.668;23.364;2023-01-31T07:12:26;94834.84;;;1.60;100.00
28626;BME280;18905;42.668;23.364;2023-01-31T07:14:51;94842.53;;;1.66;100.00
28626;BME280;18905;42.668;23.364;2023-01-31T07:17:17;94829.75;;;1.68;100.00
28626;BME280;18905;42.668;23.364;2023-01-31T07:19:45;94839.84;;;1.81;100.00
28626;BME280;18905;42.668;23.364;2023-01-31T07:22:10;94837.50;;;1.65;100.00
28626;BME280;18905;42.668;23.364;2023-01-31T07:24:36;94838.78;;;1.82;100.00
28626;BME280;18905;42.668;23.364;2023-01-31T07:27:01;94801.03;;;1.70;100.00
28626;BME280;18905;42.668;23.364;2023-01-31T07:29:27;94809.81;;;1.61;100.00
28626;BME280;18905;42.668;23.364;2023-01-31T07:31:53;94840.38;;;1.78;100.00
28626;BME280;18905;42.668;23.364;2023-01-31T07:34:19;94848.13;;;1.60;100.00
28626;BME280;18905;42.668;23.364;2023-01-31T07:36:48;94845.19;;;1.81;100.00
28626;BME280;18905;42.668;23.364;2023-01-31T07:39:13;94815.41;;;1.49;100.00
28626;BME280;18905;42.668;23.364;2023-01-31T07:41:38;94844.41;;;1.66;100.00
28626;BME280;18905;42.668;23.364;2023-01-31T07:44:04;94836.94;;;1.78;100.00
28626;BME280;18905;42.668;23.364;2023-01-31T07:46:33;94787.50;;;1.32;100.00
28626;BME280;18905;42.668;23.364;2023-01-31T07:48:59;94838.84;;;1.52;100.00
28626;BME280;18905;42.668;23.364;2023-01-31T07:51:24;94849.72;;;1.66;100.00
28626;BME280;18905;42.668;23.364;2023-01-31T07:53:49;94825.53;;;1.52;100.00
28626;BME280;18905;42.668;23.364;2023-01-31T07:56:17;94844.94;;;1.48;100.00
28626;BME280;18905;42.668;23.364;2023-01-31T07:58:44;94840.41;;;1.68;100.00
28626;BME280;18905;42.668;23.364;2023-01-31T08:01:15;94836.16;;;1.62;100.00
28626;BME280;18905;42.668;23.364;2023-01-31T08:04:00;94832.41;;;1.83;100.00
28626;BME280;18905;42.668;23.364;2023-01-31T08:06:28;94811.13;;;1.73;100.00
28626;BME280;18905;42.668;23.364;2023-01-31T08:08:55;94819.63;;;1.85;100.00
28626;BME280;18905;42.668;23.364;2023-01-31T08:11:20;94832.38;;;1.93;100.00
28626;BME280;18905;42.668;23.364;2023-01-31T08:13:46;94821.75;;;1.78;100.00
28626;BME280;18905;42.668;23.364;2023-01-31T08:16:12;94835.84;;;1.84;100.00
28626;BME280;18905;42.668;23.364;2023-01-31T08:18:37;94823.06;;;1.81;100.00
28626;BME280;18905;42.668;23.364;2023-01-31T08:21:03;94815.66;;;1.78;100.00
28626;BME280;18905;42.668;23.364;2023-01-31T08:23:29;94828.91;;;1.98;100.00
28626;BME280;18905;42.668;23.364;2023-01-31T08:26:00;94833.09;;;2.24;100.00
28626;BME280;18905;42.668;23.364;2023-01-31T08:28:25;94833.47;;;2.61;100.00
28626;BME280;18905;42.668;23.364;2023-01-31T08:30:51;94816.31;;;2.82;100.00
28626;BME280;18905;42.668;23.364;2023-01-31T08:33:16;94820.13;;;2.61;100.00
28626;BME280;18905;42.668;23.364;2023-01-31T08:35:42;94794.31;;;2.51;100.00
28626;BME280;18905;42.668;23.364;2023-01-31T08:38:07;94837.31;;;2.83;100.00
28626;BME280;18905;42.668;23.364;2023-01-31T08:40:32;94821.06;;;2.85;100.00
28626;BME280;18905;42.668;23.364;2023-01-31T08:42:59;94824.06;;;2.73;100.00
28626;BME280;18905;42.668;23.364;2023-01-31T08:45:25;94804.66;;;2.68;100.00
28626;BME280;18905;42.668;23.364;2023-01-31T08:47:55;94811.72;;;2.87;100.00
28626;BME280;18905;42.668;23.364;2023-01-31T08:50:22;94829.56;;;2.92;100.00
28626;BME280;18905;42.668;23.364;2023-01-31T08:52:59;94833.44;;;2.66;100.00
28626;BME280;18905;42.668;23.364;2023-01-31T08:55:26;94825.28;;;2.42;100.00
28626;BME280;18905;42.668;23.364;2023-01-31T08:57:52;94823.97;;;2.35;100.00
28626;BME280;18905;42.668;23.364;2023-01-31T09:00:19;94803.47;;;2.35;100.00
28626;BME280;18905;42.668;23.364;2023-01-31T09:02:50;94842.00;;;3.06;100.00
28626;BME280;18905;42.668;23.364;2023-01-31T09:05:16;94808.41;;;3.39;100.00
28626;BME280;18905;42.668;23.364;2023-01-31T09:07:41;94799.19;;;3.26;100.00
28626;BME280;18905;42.668;23.364;2023-01-31T09:10:07;94804.28;;;3.23;100.00
28626;BME280;18905;42.668;23.364;2023-01-31T09:12:33;94839.50;;;4.10;100.00
28626;BME280;18905;42.668;23.364;2023-01-31T09:14:59;94822.97;;;4.08;100.00
28626;BME280;18905;42.668;23.364;2023-01-31T09:17:25;94812.47;;;3.31;100.00
28626;BME280;18905;42.668;23.364;2023-01-31T09:19:50;94831.13;;;3.36;100.00
28626;BME280;18905;42.668;23.364;2023-01-31T09:22:16;94811.56;;;3.74;100.00
28626;BME280;18905;42.668;23.364;2023-01-31T09:24:41;94785.97;;;3.11;100.00
28626;BME280;18905;42.668;23.364;2023-01-31T09:27:07;94766.44;;;3.73;100.00
28626;BME280;18905;42.668;23.364;2023-01-31T09:29:32;94816.84;;;4.31;100.00
28626;BME280;18905;42.668;23.364;2023-01-31T09:31:57;94833.13;;;4.77;100.00
28626;BME280;18905;42.668;23.364;2023-01-31T09:34:23;94832.38;;;4.06;100.00
28626;BME280;18905;42.668;23.364;2023-01-31T09:36:49;94771.97;;;3.81;100.00
28626;BME280;18905;42.668;23.364;2023-01-31T09:39:14;94772.66;;;4.15;100.00
28626;BME280;18905;42.668;23.364;2023-01-31T09:47:19;94787.66;;;4.77;100.00
28626;BME280;18905;42.668;23.364;2023-01-31T09:50:12;94771.75;;;4.67;100.00
28626;BME280;18905;42.668;23.364;2023-01-31T09:52:42;94779.47;;;4.87;100.00
28626;BME280;18905;42.668;23.364;2023-01-31T09:55:28;94781.59;;;4.71;100.00
28626;BME280;18905;42.668;23.364;2023-01-31T09:58:08;94789.16;;;4.64;100.00
28626;BME280;18905;42.668;23.364;2023-01-31T10:00:51;94791.97;;;4.73;100.00
28626;BME280;18905;42.668;23.364;2023-01-31T10:03:24;94783.75;;;4.27;100.00
28626;BME280;18905;42.668;23.364;2023-01-31T10:06:07;94780.63;;;4.81;100.00
28626;BME280;18905;42.668;23.364;2023-01-31T10:11:46;94786.53;;;3.65;100.00
28626;BME280;18905;42.668;23.364;2023-01-31T10:14:30;94802.88;;;3.59;100.00
28626;BME280;18905;42.668;23.364;2023-01-31T10:20:40;94805.06;;;4.09;100.00
28626;BME280;18905;42.668;23.364;2023-01-31T10:22:44;94786.97;;;4.48;100.00
28626;BME280;18905;42.668;23.364;2023-01-31T10:25:26;94766.69;;;4.23;100.00
28626;BME280;18905;42.668;23.364;2023-01-31T10:33:49;94774.41;;;4.48;100.00
28626;BME280;18905;42.668;23.364;2023-01-31T10:39:20;94765.53;;;4.90;100.00
28626;BME280;18905;42.668;23.364;2023-01-31T10:46:58;94759.81;;;4.59;100.00
28626;BME280;18905;42.668;23.364;2023-01-31T10:49:25;94769.97;;;4.39;100.00
28626;BME280;18905;42.668;23.364;2023-01-31T10:57:05;94786.91;;;3.82;100.00
28626;BME280;18905;42.668;23.364;2023-01-31T10:59:36;94788.69;;;3.92;100.00
28626;BME280;18905;42.668;23.364;2023-01-31T11:02:03;94741.25;;;3.32;100.00
28626;BME280;18905;42.668;23.364;2023-01-31T11:04:38;94798.91;;;3.56;100.00
28626;BME280;18905;42.668;23.364;2023-01-31T11:07:04;94766.44;;;3.16;100.00
28626;BME280;18905;42.668;23.364;2023-01-31T11:09:39;94766.19;;;2.79;100.00
28626;BME280;18905;42.668;23.364;2023-01-31T11:12:06;94781.19;;;3.08;100.00
28626;BME280;18905;42.668;23.364;2023-01-31T11:14:33;94784.84;;;3.17;100.00
28626;BME280;18905;42.668;23.364;2023-01-31T11:17:06;94785.59;;;3.23;100.00
28626;BME280;18905;42.668;23.364;2023-01-31T11:19:37;94782.44;;;3.16;100.00
28626;BME280;18905;42.668;23.364;2023-01-31T11:22:05;94796.22;;;3.28;100.00
28626;BME280;18905;42.668;23.364;2023-01-31T11:24:33;94778.88;;;3.30;100.00
28626;BME280;18905;42.668;23.364;2023-01-31T11:27:04;94764.34;;;3.08;100.00
28626;BME280;18905;42.668;23.364;2023-01-31T11:29:38;94785.34;;;3.19;100.00
28626;BME280;18905;42.668;23.364;2023-01-31T11:32:28;94785.31;;;2.86;100.00
28626;BME280;18905;42.668;23.364;2023-01-31T11:35:00;94793.81;;;2.93;100.00
28626;BME280;18905;42.668;23.364;2023-01-31T11:37:28;94769.91;;;2.83;100.00
28626;BME280;18905;42.668;23.364;2023-01-31T11:40:15;94774.34;;;2.92;100.00
28626;BME280;18905;42.668;23.364;2023-01-31T11:42:57;94783.75;;;2.80;100.00
28626;BME280;18905;42.668;23.364;2023-01-31T11:45:29;94778.22;;;2.71;100.00
28626;BME280;18905;42.668;23.364;2023-01-31T11:47:58;94777.19;;;3.06;100.00
28626;BME280;18905;42.668;23.364;2023-01-31T11:50:35;94777.78;;;2.54;100.00
28626;BME280;18905;42.668;23.364;2023-01-31T11:53:28;94783.22;;;2.83;100.00
28626;BME280;18905;42.668;23.364;2023-01-31T11:56:08;94756.72;;;2.96;100.00
28626;BME280;18905;42.668;23.364;2023-01-31T11:58:38;94783.31;;;2.63;100.00
28626;BME280;18905;42.668;23.364;2023-01-31T12:01:16;94788.06;;;2.76;100.00
28626;BME280;18905;42.668;23.364;2023-01-31T12:03:46;94796.44;;;2.54;100.00
28626;BME280;18905;42.668;23.364;2023-01-31T12:06:28;94770.75;;;2.25;100.00
28626;BME280;18905;42.668;23.364;2023-01-31T12:08:57;94742.00;;;2.17;100.00
28626;BME280;18905;42.668;23.364;2023-01-31T12:11:34;94782.97;;;2.36;100.00
28626;BME280;18905;42.668;23.364;2023-01-31T12:14:12;94776.19;;;2.58;100.00
28626;BME280;18905;42.668;23.364;2023-01-31T12:16:38;94774.88;;;2.51;100.00
28626;BME280;18905;42.668;23.364;2023-01-31T12:47:21;94790.16;;;2.84;100.00
28626;BME280;18905;42.668;23.364;2023-01-31T13:00:45;94764.63;;;2.19;100.00
28626;BME280;18905;42.668;23.364;2023-01-31T13:06:23;94797.09;;;2.31;100.00
28626;BME280;18905;42.668;23.364;2023-01-31T13:08:59;94795.69;;;2.44;100.00
28626;BME280;18905;42.668;23.364;2023-01-31T13:11:32;94798.97;;;2.26;100.00
28626;BME280;18905;42.668;23.364;2023-01-31T13:14:02;94801.31;;;2.37;100.00
28626;BME280;18905;42.668;23.364;2023-01-31T13:16:33;94794.13;;;2.38;100.00
28626;BME280;18905;42.668;23.364;2023-01-31T13:19:02;94808.09;;;2.15;100.00
28626;BME280;18905;42.668;23.364;2023-01-31T13:21:33;94807.53;;;2.18;100.00
28626;BME280;18905;42.668;23.364;2023-01-31T13:24:12;94802.94;;;2.33;100.00
28626;BME280;18905;42.668;23.364;2023-01-31T13:26:48;94805.81;;;2.47;100.00
28626;BME280;18905;42.668;23.364;2023-01-31T13:29:37;94812.19;;;2.51;100.00
28626;BME280;18905;42.668;23.364;2023-01-31T13:32:27;94800.88;;;2.20;100.00
28626;BME280;18905;42.668;23.364;2023-01-31T13:35:04;94806.66;;;2.37;100.00
28626;BME280;18905;42.668;23.364;2023-01-31T13:37:36;94810.44;;;2.26;100.00
28626;BME280;18905;42.668;23.364;2023-01-31T13:42:40;94802.31;;;2.51;100.00
28626;BME280;18905;42.668;23.364;2023-01-31T13:45:06;94784.78;;;2.40;100.00
28626;BME280;18905;42.668;23.364;2023-01-31T13:47:47;94806.91;;;2.41;100.00
28626;BME280;18905;42.668;23.364;2023-01-31T13:52:51;94813.84;;;2.42;100.00
28626;BME280;18905;42.668;23.364;2023-01-31T13:55:25;94817.56;;;2.46;100.00
28626;BME280;18905;42.668;23.364;2023-01-31T13:58:03;94798.69;;;2.27;100.00
28626;BME280;18905;42.668;23.364;2023-01-31T14:00:37;94815.22;;;2.29;100.00
28626;BME280;18905;42.668;23.364;2023-01-31T14:03:10;94821.25;;;2.45;100.00
28626;BME280;18905;42.668;23.364;2023-01-31T14:10:56;94825.53;;;2.46;100.00
28626;BME280;18905;42.668;23.364;2023-01-31T14:13:27;94824.53;;;2.32;100.00
28626;BME280;18905;42.668;23.364;2023-01-31T14:16:01;94813.50;;;2.53;100.00
28626;BME280;18905;42.668;23.364;2023-01-31T14:18:41;94823.88;;;2.60;100.00
28626;BME280;18905;42.668;23.364;2023-01-31T14:23:59;94833.03;;;2.34;100.00
28626;BME280;18905;42.668;23.364;2023-01-31T14:29:19;94833.41;;;2.71;100.00
28626;BME280;18905;42.668;23.364;2023-01-31T14:31:47;94799.59;;;2.66;100.00
28626;BME280;18905;42.668;23.364;2023-01-31T14:34:17;94828.44;;;2.54;100.00
28626;BME280;18905;42.668;23.364;2023-01-31T14:45:49;94850.28;;;2.51;100.00
28626;BME280;18905;42.668;23.364;2023-01-31T14:48:54;94857.81;;;2.39;100.00
28626;BME280;18905;42.668;23.364;2023-01-31T14:51:38;94858.00;;;2.53;100.00
28626;BME280;18905;42.668;23.364;2023-01-31T15:02:36;94866.97;;;2.08;100.00
28626;BME280;18905;42.668;23.364;2023-01-31T15:05:52;94862.59;;;2.37;100.00
28626;BME280;18905;42.668;23.364;2023-01-31T15:13:40;94897.81;;;2.14;100.00
28626;BME280;18905;42.668;23.364;2023-01-31T15:16:30;94893.28;;;2.25;100.00
28626;BME280;18905;42.668;23.364;2023-01-31T15:21:35;94881.56;;;2.26;100.00
28626;BME280;18905;42.668;23.364;2023-01-31T15:24:03;94885.84;;;2.12;100.00
28626;BME280;18905;42.668;23.364;2023-01-31T15:26:30;94886.94;;;2.06;100.00
28626;BME280;18905;42.668;23.364;2023-01-31T15:28:59;94904.72;;;2.30;100.00